Ana Sayfa
METAR-TAF:

METAR-TAF

Havaalanları :

Hosea Kutako Uluslararası Havalimanı

Windhoek, Namibya

Enlem: 22-29S, Boylam: 017-28E, yükseklik: 1715 m

Güncel hava durumu gözlemi

Rapor saat 20:00 UTC de 1 saat ve 34 dakika önce yapıldı.
Rüzgar batıdan 9 kt
Sıcaklık 21°C
Nem 11%
Basınç 1022 hPa

METAR: FYWH 252000Z AUTO 26009KT //// // ////// 21/M10 Q1022

Saat: 23:34 (21:34 UTC)

Tahmin

Rapor saat 16:00 UTC de 5 saat ve 34 dakika önce yapıldı.
Ayın 25'si saat 18 UTC'den ayın 26'si saat 18 UTC'ye kadar geçerli Tahmin
Rüzgar batı/kuzeybatıdan 9 kt
Görüş mesafesi 10 km veya daha fazla
1500 m altında bulut yok ve kümülonimbus yok
Dönüşüyor
ayın 25'si saat 19 UTC'den ayın 25'si saat 21 UTC'ye kadar
Rüzgar güneybatıdan 7 kt
Dönüşüyor
ayın 26'si saat 05 UTC'den ayın 26'si saat 07 UTC'ye kadar
Rüzgar doğu/güneydoğudan 7 kt

TAF: FYWH 251600Z 2518/2618 30009KT CAVOK BECMG 2519/2521 23007KT BECMG 2605/2607 12007KT

4.000'den fazla havaalanı için hava durumu gözlemleri ve tahminleri (METAR ve TAF raporları).

Kullanılabilir istasyonlar harita üzerinde sarı ve kırmızı noktalarla gösterilir.

İstasyonun adını görmek için fareyi noktanın üzerinde gezdirin.

Sonrasında hava gözlem ve tahminlerini görmek için tıklayın.

Haritayı değiştirmek için: yaklaştırmak için siyah artı işaretli yeşil düğmeye ve uzaklaştırmak için de eksi işaretli düğmeye hızla tıklayın; bitişik haritalar için yeşil okları kullanın.


METAR-TAF: